Impacts TAF Board INFO
FOR SITUATIONAL AWARENESS. NOT TO BE USED FOR FLIGHT PLANNING PURPOSES.
IDs:

KMSP - Minneapolis-St Paul, MN, US

Issued at 2330 UTC 23 Jun 2018
Updated at 0057 UTC 24 Jun 2018
Potential Impact None Slight Moderate High
Time0053Z 24/01Z 24/02Z 24/03Z 24/04Z 24/05Z 24/06Z 24/07Z 24/08Z 24/09Z 24/10Z 24/11Z 24/12Z 24/13Z>>
Type OBS PRVL PRVL PRVL PRVL PRVL PRVL PRVL PRVL PRVL PRVL PRVL PRVL PRVL
VIS 10 >6 >6 >6 >6 >6 >6 >6 >6 >6 >6 >6 >6 >6
CIG 250 250 250 150 150 150 150 150 150 150 150 150 150 150
Cover BKN BKN BKN BKN BKN BKN BKN BKN BKN BKN BKN BKN BKN BKN
FltCat VFR VFR VFR VFR VFR VFR VFR VFR VFR VFR VFR VFR VFR VFR
WX -- -- -- -- -- -- -- -- -- -- -- -- -- --
WDir 220 190 190 VRB VRB VRB VRB VRB VRB VRB VRB VRB VRB VRB
WSpd 8 5 5 3 3 3 3 3 3 3 3 3 3 3
WGst -- -- -- -- -- -- -- -- -- -- -- -- -- --

Raw TAF
KMSP 232330Z 2400/2506 19005KT P6SM SCT050 BKN250
  FM240300 VRB03KT P6SM SCT050 BKN150
  FM241500 08005KT P6SM SCT040 BKN100
  FM241800 09007KT P6SM VCSH SCT040 BKN080


Raw METAR
KMSP 240053Z 22008KT 10SM FEW050 BKN250 26/14 A2976 RMK AO2 SLP072 T02610144
KMSP 232353Z 21005KT 10SM FEW050 BKN250 27/14 A2974 RMK AO2 SLP066 T02670144 10278 20261 56004
KMSP 232253Z 22005KT 10SM SCT050 BKN250 27/14 A2974 RMK AO2 SLP067 T02720144
KMSP 232153Z 17007KT 10SM SCT050 BKN250 27/15 A2975 RMK AO2 SLP068 T02720150

METAR Board
Radar Display
Forecast Discussion

FOR SITUATIONAL AWARENESS. NOT TO BE USED FOR FLIGHT PLANNING PURPOSES.